createdAt,value
2022-10-14T00:01:39.339Z,100178.09
2022-10-14T00:04:07.776Z,100175.47
2022-10-14T00:06:36.190Z,100167.53
2022-10-14T00:09:08.634Z,100173.72
2022-10-14T00:11:37.991Z,100171.03
2022-10-14T00:14:09.103Z,100162.28
2022-10-14T00:16:41.150Z,100169.28
2022-10-14T00:19:12.454Z,100153.50
2022-10-14T00:21:43.785Z,100157.88
2022-10-14T00:24:14.335Z,100159.66
2022-10-14T00:26:42.731Z,100150.88
2022-10-14T00:29:15.786Z,100154.38
2022-10-14T00:31:45.760Z,100159.63
2022-10-14T00:34:15.987Z,100157.88
2022-10-14T00:36:44.852Z,100153.50
2022-10-14T00:39:17.186Z,100157.84
2022-10-14T00:41:45.957Z,100149.97
2022-10-14T00:44:48.068Z,100150.84
2022-10-14T00:47:18.466Z,100156.09
2022-10-14T00:49:46.932Z,100154.34
2022-10-14T00:52:18.792Z,100160.47
2022-10-14T00:54:51.439Z,100154.34
2022-10-14T00:57:20.640Z,100148.16
2022-10-14T00:59:49.419Z,100152.56
2022-10-14T01:02:19.151Z,100150.78
2022-10-14T01:04:47.563Z,100149.00
2022-10-14T01:07:25.674Z,100153.38
2022-10-14T01:10:04.202Z,100149.00
2022-10-14T01:12:42.660Z,100152.50
2022-10-14T01:15:22.830Z,100150.75
2022-10-14T01:18:02.907Z,100149.88
2022-10-14T01:20:54.431Z,100151.63
2022-10-14T01:23:39.804Z,100153.38
2022-10-14T01:26:28.281Z,100139.38
2022-10-14T01:29:14.611Z,100130.59
2022-10-14T01:31:49.070Z,100133.22
2022-10-14T01:34:21.951Z,100130.59
2022-10-14T01:36:57.309Z,100124.47
2022-10-14T01:39:30.129Z,100117.41
2022-10-14T01:42:03.522Z,100120.94
2022-10-14T01:44:33.809Z,100111.31
2022-10-14T01:47:06.462Z,100107.78
2022-10-14T01:49:38.718Z,100100.81
2022-10-14T01:52:13.926Z,100096.38
2022-10-14T01:54:45.583Z,100099.00
2022-10-14T01:57:19.218Z,100093.75
2022-10-14T01:59:48.900Z,100091.13
2022-10-14T02:02:18.896Z,100095.50
2022-10-14T02:04:47.344Z,100090.25
2022-10-14T02:07:21.945Z,100092.84
2022-10-14T02:09:57.292Z,100097.25
2022-10-14T02:12:39.644Z,100092.84
2022-10-14T02:15:17.976Z,100084.97
2022-10-14T02:17:56.490Z,100085.84
2022-10-14T02:20:30.235Z,100081.44
2022-10-14T02:23:01.787Z,100084.09
2022-10-14T02:25:35.757Z,100088.47
2022-10-14T02:28:07.886Z,100082.31
2022-10-14T02:30:42.641Z,100076.19
2022-10-14T02:33:13.990Z,100071.81
2022-10-14T02:35:44.333Z,100071.81
2022-10-14T02:38:12.852Z,100076.16
2022-10-14T02:40:45.600Z,100076.16
2022-10-14T02:43:14.062Z,100072.69
2022-10-14T02:45:44.125Z,100070.06
2022-10-14T02:48:14.412Z,100064.81
2022-10-14T02:50:43.133Z,100070.06
2022-10-14T02:53:15.548Z,100056.88
2022-10-14T02:55:46.838Z,100050.75
2022-10-14T02:58:15.215Z,100049.88
2022-10-14T03:00:43.580Z,100044.63
2022-10-14T03:03:14.922Z,100047.25
2022-10-14T03:05:44.020Z,100046.38
2022-10-14T03:08:15.202Z,100047.25
2022-10-14T03:10:47.235Z,100045.50
2022-10-14T03:13:17.317Z,100038.44
2022-10-14T03:15:50.346Z,100027.94
2022-10-14T03:18:21.618Z,100035.81
2022-10-14T03:20:51.164Z,100033.19
2022-10-14T03:23:25.147Z,100031.44
2022-10-14T03:25:55.758Z,100035.78
2022-10-14T03:28:28.440Z,100028.81
2022-10-14T03:31:17.061Z,100025.31
2022-10-14T03:33:56.436Z,100023.59
2022-10-14T03:36:25.442Z,100016.56
2022-10-14T03:38:56.895Z,100018.28
2022-10-14T03:41:35.262Z,100025.34
2022-10-14T03:44:04.218Z,100018.28
2022-10-14T03:46:34.828Z,100013.94
2022-10-14T03:49:05.145Z,100017.41
2022-10-14T03:51:34.173Z,100013.03
2022-10-14T03:54:10.572Z,100024.47
2022-10-14T03:56:39.409Z,100016.56
2022-10-14T03:59:08.135Z,100005.19
2022-10-14T04:01:38.159Z,100011.34
2022-10-14T04:04:19.096Z,100011.34
2022-10-14T04:06:48.278Z,100016.59
2022-10-14T04:09:19.219Z,100018.38
2022-10-14T04:11:47.561Z,100018.38
2022-10-14T04:14:34.292Z,100015.69
2022-10-14T04:17:02.732Z,100024.50
2022-10-14T04:19:32.470Z,100019.25
2022-10-14T04:22:02.607Z,100015.72
2022-10-14T04:24:31.540Z,100013.97
2022-10-14T04:27:00.911Z,100012.22
2022-10-14T04:29:52.862Z,100001.72
2022-10-14T04:32:28.481Z,100007.84
2022-10-14T04:34:58.783Z,100001.72
2022-10-14T04:37:31.275Z,100003.47
2022-10-14T04:40:04.805Z,100003.47
2022-10-14T04:42:34.859Z,100000.84
2022-10-14T04:45:07.743Z,100007.84
2022-10-14T04:47:51.677Z,100005.22
2022-10-14T04:50:25.143Z,100002.59
2022-10-14T04:53:14.061Z,100002.59
2022-10-14T04:56:00.373Z,99998.22
2022-10-14T04:58:28.805Z,99997.34
2022-10-14T05:00:58.254Z,99992.94
2022-10-14T05:03:34.191Z,99986.81
2022-10-14T05:06:04.002Z,99990.31
2022-10-14T05:08:32.334Z,99985.94
2022-10-14T05:11:02.542Z,99988.59
2022-10-14T05:13:38.785Z,99979.81
2022-10-14T05:16:10.025Z,99977.22
2022-10-14T05:18:39.777Z,99973.72
2022-10-14T05:21:13.986Z,99981.59
2022-10-14T05:23:58.059Z,99973.72
2022-10-14T05:26:28.802Z,99977.19
2022-10-14T05:28:59.783Z,99973.66
2022-10-14T05:31:28.216Z,99964.91
2022-10-14T05:34:03.942Z,99962.28
2022-10-14T05:36:33.914Z,99960.53
2022-10-14T05:39:03.145Z,99961.41
2022-10-14T05:41:36.143Z,99956.16
2022-10-14T05:44:05.071Z,99953.53
2022-10-14T05:46:34.752Z,99956.16
2022-10-14T05:49:05.902Z,99959.66
2022-10-14T05:51:38.435Z,99960.53
2022-10-14T05:54:16.590Z,99950.00
2022-10-14T05:56:45.886Z,99946.50
2022-10-14T05:59:14.875Z,99943.03
2022-10-14T06:01:43.680Z,99943.03
2022-10-14T06:04:18.667Z,99940.41
2022-10-14T06:06:48.751Z,99937.81
2022-10-14T06:09:18.176Z,99950.03
2022-10-14T06:11:46.894Z,99943.06
2022-10-14T06:14:15.417Z,99940.44
2022-10-14T06:16:43.837Z,99940.44
2022-10-14T06:19:12.283Z,99943.06
2022-10-14T06:21:40.626Z,99938.69
2022-10-14T06:24:10.544Z,99928.22
2022-10-14T06:26:38.885Z,99923.81
2022-10-14T06:29:07.415Z,99922.06
2022-10-14T06:31:35.700Z,99922.09
2022-10-14T06:34:05.992Z,99928.28
2022-10-14T06:36:35.110Z,99928.28
2022-10-14T06:39:03.763Z,99924.75
2022-10-14T06:41:33.805Z,99926.53
2022-10-14T06:44:02.130Z,99929.22
2022-10-14T06:46:31.858Z,99923.94
2022-10-14T06:49:00.196Z,99924.84
2022-10-14T06:51:28.478Z,99928.34
2022-10-14T06:53:56.939Z,99929.25
2022-10-14T06:56:25.305Z,99929.25
2022-10-14T06:58:56.199Z,99921.41
2022-10-14T07:01:24.675Z,99926.69
2022-10-14T07:03:55.909Z,99924.91
2022-10-14T07:06:25.140Z,99928.44
2022-10-14T07:08:53.470Z,99922.31
2022-10-14T07:11:21.900Z,99922.31
2022-10-14T07:13:50.438Z,99912.66
2022-10-14T07:16:20.257Z,99919.69
2022-10-14T07:18:49.541Z,99926.72
2022-10-14T07:21:17.817Z,99923.22
2022-10-14T07:23:46.574Z,99919.72
2022-10-14T07:26:15.041Z,99919.75
2022-10-14T07:28:43.479Z,99913.56
2022-10-14T07:31:13.062Z,99917.97
2022-10-14T07:33:42.776Z,99907.47
2022-10-14T07:36:17.229Z,99912.72
2022-10-14T07:38:48.352Z,99901.34
2022-10-14T07:41:19.310Z,99904.00
2022-10-14T07:43:50.190Z,99904.88
2022-10-14T07:46:29.154Z,99902.25
2022-10-14T07:49:00.402Z,99911.03
2022-10-14T07:51:29.611Z,99905.78
2022-10-14T07:54:00.282Z,99914.56
2022-10-14T07:56:29.259Z,99918.09
2022-10-14T07:58:59.406Z,99928.63
2022-10-14T08:01:27.785Z,99923.38
2022-10-14T08:03:56.482Z,99920.75
2022-10-14T08:06:26.202Z,99919.91
2022-10-14T08:08:54.959Z,99913.78
2022-10-14T08:11:25.332Z,99907.66
2022-10-14T08:13:54.577Z,99911.16
2022-10-14T08:16:25.499Z,99916.47
2022-10-14T08:18:56.042Z,99902.44
2022-10-14T08:21:26.608Z,99905.09
2022-10-14T08:23:55.602Z,99888.44
2022-10-14T08:26:29.096Z,99892.81
2022-10-14T08:28:58.340Z,99888.47
2022-10-14T08:31:26.781Z,99885.88
2022-10-14T08:33:55.130Z,99889.41
2022-10-14T08:36:23.602Z,99889.41
2022-10-14T08:38:54.726Z,99885.91
2022-10-14T08:41:39.552Z,99880.69
2022-10-14T08:44:15.954Z,99874.56
2022-10-14T08:46:51.226Z,99873.69
2022-10-14T08:49:26.855Z,99863.19
2022-10-14T08:52:00.973Z,99863.22
2022-10-14T08:54:37.802Z,99860.59
2022-10-14T08:57:13.597Z,99866.78
2022-10-14T08:59:42.676Z,99868.56
2022-10-14T09:02:24.235Z,99857.16
2022-10-14T09:04:52.777Z,99854.56
2022-10-14T09:07:22.178Z,99851.97
2022-10-14T09:09:58.120Z,99847.59
2022-10-14T09:12:29.536Z,99840.63
2022-10-14T09:15:08.950Z,99839.75
2022-10-14T09:17:43.191Z,99840.69
2022-10-14T09:20:19.421Z,99838.06
2022-10-14T09:22:57.893Z,99844.22
2022-10-14T09:25:28.521Z,99837.19
2022-10-14T09:27:56.958Z,99829.31
2022-10-14T09:30:25.340Z,99836.38
2022-10-14T09:32:55.910Z,99837.28
2022-10-14T09:35:26.931Z,99832.03
2022-10-14T09:37:55.399Z,99839.03
2022-10-14T09:40:31.094Z,99835.53
2022-10-14T09:43:04.085Z,99829.41
2022-10-14T09:45:49.761Z,99825.94
2022-10-14T09:48:21.567Z,99829.44
2022-10-14T09:50:52.681Z,99820.69
2022-10-14T09:53:29.256Z,99813.69
2022-10-14T09:56:00.763Z,99817.22
2022-10-14T09:58:34.020Z,99817.22
2022-10-14T10:01:03.481Z,99814.59
2022-10-14T10:03:33.703Z,99803.19
2022-10-14T10:06:05.528Z,99813.75
2022-10-14T10:08:34.814Z,99821.66
2022-10-14T10:11:07.059Z,99809.38
2022-10-14T10:13:44.449Z,99802.34
2022-10-14T10:16:22.490Z,99805.88
2022-10-14T10:18:52.307Z,99809.41
2022-10-14T10:21:25.745Z,99803.25
2022-10-14T10:23:57.729Z,99799.75
2022-10-14T10:26:31.740Z,99798.88
2022-10-14T10:29:02.573Z,99789.19
2022-10-14T10:32:07.075Z,99795.34
2022-10-14T10:34:58.522Z,99794.47
2022-10-14T10:37:29.974Z,99788.34
2022-10-14T10:40:22.130Z,99787.44
2022-10-14T10:43:06.826Z,99787.44
2022-10-14T10:45:47.835Z,99780.44
2022-10-14T10:48:22.359Z,99773.41
2022-10-14T10:50:57.583Z,99778.69
2022-10-14T10:53:42.578Z,99776.94
2022-10-14T10:56:23.835Z,99779.56
2022-10-14T10:59:12.202Z,99762.03
2022-10-14T11:01:51.217Z,99764.66
2022-10-14T11:04:43.548Z,99766.44
2022-10-14T11:07:38.111Z,99762.91
2022-10-14T11:10:34.189Z,99753.25
2022-10-14T11:13:21.328Z,99753.22
2022-10-14T11:15:58.078Z,99746.22
2022-10-14T11:18:37.491Z,99747.13
2022-10-14T11:21:13.358Z,99756.78
2022-10-14T11:23:57.145Z,99747.09
2022-10-14T11:26:41.576Z,99749.75
2022-10-14T11:29:27.063Z,99751.53
2022-10-14T11:32:04.997Z,99747.13
2022-10-14T11:34:43.810Z,99746.22
2022-10-14T11:37:29.622Z,99746.22
2022-10-14T11:40:03.034Z,99748.88
2022-10-14T11:42:49.020Z,99739.22
2022-10-14T11:45:47.586Z,99726.00
2022-10-14T11:48:25.209Z,99718.09
2022-10-14T11:50:58.987Z,99722.50
2022-10-14T11:53:40.521Z,99720.72
2022-10-14T11:56:18.752Z,99717.22
2022-10-14T11:58:48.771Z,99720.72
2022-10-14T12:01:22.196Z,99724.25
2022-10-14T12:04:03.628Z,99715.44
2022-10-14T12:06:36.623Z,99711.03
2022-10-14T12:09:13.622Z,99709.31
2022-10-14T12:11:47.254Z,99704.91
2022-10-14T12:14:21.370Z,99702.28
2022-10-14T12:16:51.120Z,99701.38
2022-10-14T12:19:25.656Z,99695.22
2022-10-14T12:21:59.190Z,99696.97
2022-10-14T12:24:34.589Z,99693.47
2022-10-14T12:27:04.986Z,99687.31
2022-10-14T12:29:36.250Z,99687.31
2022-10-14T12:32:19.507Z,99682.94
2022-10-14T12:34:50.675Z,99675.91
2022-10-14T12:37:52.836Z,99673.25
2022-10-14T12:40:26.900Z,99666.22
2022-10-14T12:43:05.369Z,99669.75
2022-10-14T12:45:36.646Z,99667.09
2022-10-14T12:48:11.884Z,99671.50
2022-10-14T12:50:42.866Z,99663.59
2022-10-14T12:53:22.375Z,99659.19
2022-10-14T12:55:52.943Z,99655.66
2022-10-14T12:58:29.107Z,99651.25
2022-10-14T13:01:01.405Z,99643.38
2022-10-14T13:03:34.432Z,99645.09
2022-10-14T13:06:30.838Z,99638.06
2022-10-14T13:09:38.855Z,99637.19
2022-10-14T13:12:41.959Z,99622.25
2022-10-14T13:15:49.390Z,99618.72
2022-10-14T13:18:50.344Z,99619.63
2022-10-14T13:21:51.757Z,99611.69
2022-10-14T13:24:26.061Z,99617.88
2022-10-14T13:27:04.485Z,99613.47
2022-10-14T13:29:46.173Z,99616.97
2022-10-14T13:32:28.546Z,99611.72
2022-10-14T13:35:06.054Z,99609.94
2022-10-14T13:37:41.909Z,99604.69
2022-10-14T13:40:23.651Z,99595.88
2022-10-14T13:42:57.289Z,99595.88
2022-10-14T13:45:35.904Z,99590.63
2022-10-14T13:48:06.889Z,99592.38
2022-10-14T13:50:38.662Z,99589.72
2022-10-14T13:53:16.245Z,99592.38
2022-10-14T13:55:49.162Z,99590.63
2022-10-14T13:58:23.242Z,99591.50
2022-10-14T14:01:01.318Z,99593.25
2022-10-14T14:03:33.506Z,99595.00
2022-10-14T14:06:04.221Z,99595.00
2022-10-14T14:08:43.268Z,99593.25
2022-10-14T14:11:19.250Z,99596.78
2022-10-14T14:14:00.850Z,99587.09
2022-10-14T14:16:33.631Z,99595.91
2022-10-14T14:19:08.954Z,99590.63
2022-10-14T14:21:38.259Z,99580.94
2022-10-14T14:24:17.571Z,99580.97
2022-10-14T14:26:55.758Z,99585.34
2022-10-14T14:29:29.235Z,99580.97
2022-10-14T14:32:07.865Z,99573.91
2022-10-14T14:34:39.294Z,99567.78
2022-10-14T14:37:43.420Z,99563.38
2022-10-14T14:40:08.581Z,99559.84
2022-10-14T14:42:40.595Z,99559.84
2022-10-14T14:45:16.768Z,99565.16
2022-10-14T14:47:45.773Z,99565.16
2022-10-14T14:50:33.717Z,99566.00
2022-10-14T14:53:04.762Z,99568.66
2022-10-14T14:55:43.381Z,99565.13
2022-10-14T14:58:24.117Z,99558.09
2022-10-14T15:00:54.795Z,99558.09
2022-10-14T15:03:24.671Z,99554.59
2022-10-14T15:05:57.047Z,99551.06
2022-10-14T15:08:29.721Z,99553.69
2022-10-14T15:11:00.795Z,99550.19
2022-10-14T15:13:49.484Z,99551.06
2022-10-14T15:16:36.981Z,99555.47
2022-10-14T15:19:27.185Z,99557.22
2022-10-14T15:22:24.075Z,99539.63
2022-10-14T15:25:06.664Z,99537.88
2022-10-14T15:27:49.971Z,99541.41
2022-10-14T15:30:20.686Z,99531.72
2022-10-14T15:32:49.778Z,99529.97
2022-10-14T15:35:20.317Z,99534.38
2022-10-14T15:37:50.147Z,99521.19
2022-10-14T15:40:21.080Z,99513.28
2022-10-14T15:42:51.366Z,99511.50
2022-10-14T15:45:20.697Z,99512.38
2022-10-14T15:47:54.713Z,99508.88
2022-10-14T15:50:26.365Z,99517.66
2022-10-14T15:52:55.570Z,99516.78
2022-10-14T15:55:26.605Z,99520.31
2022-10-14T15:57:57.261Z,99515.03
2022-10-14T16:00:26.172Z,99511.50
2022-10-14T16:02:58.576Z,99510.63
2022-10-14T16:05:29.743Z,99508.84
2022-10-14T16:07:58.858Z,99512.41
2022-10-14T16:10:29.437Z,99505.38
2022-10-14T16:13:02.211Z,99504.50
2022-10-14T16:15:35.769Z,99507.13
2022-10-14T16:18:04.198Z,99508.00
2022-10-14T16:20:32.944Z,99511.53
2022-10-14T16:23:01.284Z,99507.13
2022-10-14T16:25:35.497Z,99520.31
2022-10-14T16:28:09.187Z,99518.53
2022-10-14T16:30:40.879Z,99515.88
2022-10-14T16:33:09.214Z,99510.63
2022-10-14T16:35:37.478Z,99501.84
2022-10-14T16:38:05.794Z,99506.25
2022-10-14T16:40:36.731Z,99500.06
2022-10-14T16:43:08.430Z,99493.91
2022-10-14T16:45:36.914Z,99500.06
2022-10-14T16:48:05.869Z,99500.06
2022-10-14T16:50:34.212Z,99497.47
2022-10-14T16:53:20.093Z,99497.47
2022-10-14T16:55:48.386Z,99492.16
2022-10-14T16:58:18.107Z,99495.69
2022-10-14T17:00:46.399Z,99508.88
2022-10-14T17:03:16.457Z,99502.75
2022-10-14T17:05:46.475Z,99499.22
2022-10-14T17:08:15.490Z,99499.22
2022-10-14T17:10:48.850Z,99512.41
2022-10-14T17:13:19.669Z,99514.16
2022-10-14T17:15:48.043Z,99513.28
2022-10-14T17:18:17.924Z,99515.91
2022-10-14T17:20:47.336Z,99515.03
2022-10-14T17:23:15.622Z,99520.31
2022-10-14T17:25:46.501Z,99518.56
2022-10-14T17:28:15.494Z,99507.13
2022-10-14T17:30:45.180Z,99508.91
2022-10-14T17:33:13.698Z,99501.88
2022-10-14T17:35:42.050Z,99507.13
2022-10-14T17:38:10.794Z,99500.97
2022-10-14T17:40:39.252Z,99506.28
2022-10-14T17:43:07.541Z,99495.72
2022-10-14T17:45:36.160Z,99499.25
2022-10-14T17:48:07.100Z,99494.00
2022-10-14T17:50:36.847Z,99493.09
2022-10-14T17:53:05.198Z,99495.72
2022-10-14T17:55:36.135Z,99495.75
2022-10-14T17:58:04.454Z,99490.47
2022-10-14T18:00:32.806Z,99494.00
2022-10-14T18:03:01.129Z,99494.84
2022-10-14T18:05:31.362Z,99499.25
2022-10-14T18:07:59.642Z,99495.75
2022-10-14T18:10:28.025Z,99501.91
2022-10-14T18:12:57.935Z,99494.88
2022-10-14T18:15:27.245Z,99487.84
2022-10-14T18:17:57.360Z,99508.03
2022-10-14T18:20:25.731Z,99508.03
2022-10-14T18:22:55.449Z,99508.03
2022-10-14T18:25:23.866Z,99508.03
2022-10-14T18:27:52.158Z,99503.66
2022-10-14T18:30:20.402Z,99504.53
2022-10-14T18:32:49.032Z,99497.50
2022-10-14T18:35:17.562Z,99479.94
2022-10-14T18:37:46.076Z,99488.72
2022-10-14T18:40:18.193Z,99489.59
2022-10-14T18:42:46.474Z,99481.69
2022-10-14T18:45:15.242Z,99491.34
2022-10-14T18:47:43.657Z,99486.09
2022-10-14T18:50:12.055Z,99492.22
2022-10-14T18:52:40.424Z,99495.75
2022-10-14T18:55:09.751Z,99493.97
2022-10-14T18:57:39.392Z,99471.16
2022-10-14T19:00:13.474Z,99481.69
2022-10-14T19:02:42.683Z,99472.06
2022-10-14T19:05:10.984Z,99469.41
2022-10-14T19:07:39.663Z,99466.78
2022-10-14T19:10:08.928Z,99479.06
2022-10-14T19:12:43.229Z,99472.91
2022-10-14T19:15:13.041Z,99482.59
2022-10-14T19:17:42.762Z,99478.19
2022-10-14T19:20:11.386Z,99483.47
2022-10-14T19:22:44.715Z,99481.69
2022-10-14T19:25:13.124Z,99482.56
2022-10-14T19:27:41.468Z,99469.34
2022-10-14T19:30:11.024Z,99479.91
2022-10-14T19:32:40.725Z,99477.25
2022-10-14T19:35:09.186Z,99475.53
2022-10-14T19:37:37.535Z,99467.63
2022-10-14T19:40:06.634Z,99469.34
2022-10-14T19:42:34.944Z,99457.06
2022-10-14T19:45:03.216Z,99450.06
2022-10-14T19:47:31.610Z,99451.81
2022-10-14T19:50:01.293Z,99450.94
2022-10-14T19:52:29.629Z,99446.56
2022-10-14T19:54:57.886Z,99448.28
2022-10-14T19:57:26.245Z,99441.28
2022-10-14T19:59:54.564Z,99439.50
2022-10-14T20:02:22.898Z,99442.16
2022-10-14T20:04:51.383Z,99450.06
2022-10-14T20:07:21.397Z,99437.78
2022-10-14T20:09:49.992Z,99433.38
2022-10-14T20:12:18.326Z,99424.59
2022-10-14T20:14:46.674Z,99422.84
2022-10-14T20:17:15.127Z,99425.47
2022-10-14T20:19:43.429Z,99434.22
2022-10-14T20:22:11.738Z,99431.63
2022-10-14T20:24:41.379Z,99429.88
2022-10-14T20:27:12.005Z,99432.50
2022-10-14T20:29:40.712Z,99418.44
2022-10-14T20:32:09.400Z,99423.69
2022-10-14T20:34:37.930Z,99427.22
2022-10-14T20:37:06.347Z,99413.16
2022-10-14T20:39:34.735Z,99415.78
2022-10-14T20:42:07.123Z,99414.94
2022-10-14T20:44:35.530Z,99422.81
2022-10-14T20:47:03.889Z,99434.19
2022-10-14T20:49:32.201Z,99428.97
2022-10-14T20:52:00.499Z,99421.03
2022-10-14T20:54:28.840Z,99408.75
2022-10-14T20:56:57.332Z,99414.03
2022-10-14T20:59:27.082Z,99420.16
2022-10-14T21:01:55.392Z,99421.94
2022-10-14T21:04:23.710Z,99415.78
2022-10-14T21:06:52.003Z,99414.00
2022-10-14T21:09:20.319Z,99420.19
2022-10-14T21:11:48.842Z,99407.88
2022-10-14T21:14:17.591Z,99407.03
2022-10-14T21:16:47.395Z,99407.88
2022-10-14T21:19:15.735Z,99409.63
2022-10-14T21:21:46.849Z,99417.53
2022-10-14T21:24:16.763Z,99410.50
2022-10-14T21:26:45.719Z,99415.78
2022-10-14T21:29:14.081Z,99416.66
2022-10-14T21:31:42.395Z,99407.88
2022-10-14T21:34:12.849Z,99403.50
2022-10-14T21:36:41.858Z,99414.91
2022-10-14T21:39:11.165Z,99412.28
2022-10-14T21:41:40.660Z,99405.25
2022-10-14T21:44:09.891Z,99399.13
2022-10-14T21:46:38.495Z,99398.25
2022-10-14T21:49:07.014Z,99410.53
2022-10-14T21:51:36.751Z,99408.75
2022-10-14T21:54:05.633Z,99407.91
2022-10-14T21:56:34.002Z,99407.91
2022-10-14T21:59:02.319Z,99402.66
2022-10-14T22:01:31.530Z,99402.66
2022-10-14T22:04:01.557Z,99398.25
2022-10-14T22:06:29.882Z,99397.38
2022-10-14T22:09:01.130Z,99396.50
2022-10-14T22:11:31.905Z,99399.13
2022-10-14T22:14:02.121Z,99397.38
2022-10-14T22:16:31.560Z,99392.13
2022-10-14T22:19:01.722Z,99388.59
2022-10-14T22:21:32.295Z,99395.63
2022-10-14T22:24:50.434Z,99401.75
2022-10-14T22:27:20.219Z,99405.25
2022-10-14T22:29:48.603Z,99404.41
2022-10-14T22:32:16.883Z,99403.50
2022-10-14T22:34:45.198Z,99399.13
2022-10-14T22:37:13.474Z,99402.63
2022-10-14T22:39:41.940Z,99396.50
2022-10-14T22:42:10.354Z,99394.75
2022-10-14T22:44:40.054Z,99392.97
2022-10-14T22:47:08.619Z,99393.88
2022-10-14T22:49:36.916Z,99404.38
2022-10-14T22:52:05.507Z,99399.97
2022-10-14T22:54:33.895Z,99403.50
2022-10-14T22:57:02.222Z,99400.88
2022-10-14T22:59:30.505Z,99397.34
2022-10-14T23:02:00.174Z,99399.13
2022-10-14T23:04:28.628Z,99390.34
2022-10-14T23:07:01.848Z,99388.56
2022-10-14T23:09:32.803Z,99393.84
2022-10-14T23:12:01.165Z,99380.69
2022-10-14T23:14:30.507Z,99389.47
2022-10-14T23:17:00.209Z,99391.22
2022-10-14T23:19:28.494Z,99388.56
2022-10-14T23:21:57.033Z,99379.81
2022-10-14T23:24:26.303Z,99378.06
2022-10-14T23:26:54.589Z,99388.59
2022-10-14T23:29:22.886Z,99385.09
2022-10-14T23:31:51.299Z,99387.72
2022-10-14T23:34:21.223Z,99385.09
2022-10-14T23:36:51.284Z,99385.06
2022-10-14T23:39:19.648Z,99381.56
2022-10-14T23:41:47.996Z,99386.84
2022-10-14T23:44:16.354Z,99386.84
2022-10-14T23:46:44.694Z,99388.59
2022-10-14T23:49:25.417Z,99388.59
2022-10-14T23:51:56.684Z,99383.31
2022-10-14T23:54:25.162Z,99377.19
2022-10-14T23:56:53.443Z,99384.19
2022-10-14T23:59:21.874Z,99389.47
